Time;durP1;ratioP1;P1;durP2;ratioP2;P2;SDS_P1;SDS_P2;PMS_P1;PMS_P2;Temp;Humidity;BMP_temperature;BMP_pressure;BME280_temperature;BME280_humidity;BME280_pressure;Samples;Min_cycle;Max_cycle;Signal;HPM_P1;HPM_P2
2023/05/15 00:00:09;;;;;;;66.18;39.60;;;12.50;99.90;;;;;;5082088;28;20259;-87
2023/05/15 00:02:38;;;;;;;67.57;39.60;;;12.40;99.90;;;;;;5078245;28;20200;-86
2023/05/15 00:05:07;;;;;;;68.60;40.85;;;12.40;99.90;;;;;;5065086;28;20299;-87
2023/05/15 00:07:34;;;;;;;74.47;42.67;;;12.40;99.90;;;;;;5047355;28;20182;-86
2023/05/15 00:10:00;;;;;;;68.97;41.15;;;12.40;99.90;;;;;;5100333;28;20166;-87
2023/05/15 00:12:26;;;;;;;75.88;42.50;;;12.50;99.90;;;;;;5081053;28;20255;-87
2023/05/15 00:14:51;;;;;;;74.50;43.55;;;12.40;99.90;;;;;;5098931;28;20186;-86
2023/05/15 00:17:17;;;;;;;77.18;43.25;;;12.40;99.90;;;;;;5073038;28;20189;-86
2023/05/15 00:19:44;;;;;;;72.00;43.15;;;12.40;99.90;;;;;;5077644;28;20203;-86
2023/05/15 00:22:10;;;;;;;75.47;41.28;;;12.40;99.90;;;;;;5082162;28;20186;-87
2023/05/15 00:24:36;;;;;;;73.40;42.08;;;12.40;99.90;;;;;;5091842;28;20188;-87
2023/05/15 00:27:03;;;;;;;70.38;40.38;;;12.40;99.90;;;;;;5102334;28;20587;-86
2023/05/15 00:29:29;;;;;;;76.35;41.60;;;12.40;99.90;;;;;;5079852;28;20233;-87
2023/05/15 00:31:55;;;;;;;70.57;40.97;;;12.40;99.90;;;;;;5098244;28;20258;-87
2023/05/15 00:34:24;;;;;;;69.68;40.63;;;12.40;99.90;;;;;;5077985;28;20186;-87
2023/05/15 00:36:50;;;;;;;67.40;40.42;;;12.40;99.90;;;;;;5069235;28;20186;-87
2023/05/15 00:39:16;;;;;;;69.45;40.28;;;12.30;99.90;;;;;;5061787;28;20269;-86
2023/05/15 00:41:43;;;;;;;69.25;40.90;;;12.30;99.90;;;;;;5081826;28;20170;-86
2023/05/15 00:44:11;;;;;;;69.88;41.33;;;12.30;99.90;;;;;;5065690;28;20184;-87
2023/05/15 00:46:38;;;;;;;67.93;40.63;;;12.30;99.90;;;;;;5044334;28;20237;-87
2023/05/15 00:49:05;;;;;;;74.93;42.50;;;12.30;99.90;;;;;;5099651;28;20182;-87
2023/05/15 00:51:32;;;;;;;74.35;40.60;;;12.30;99.90;;;;;;5097190;28;20204;-87
2023/05/15 00:53:58;;;;;;;73.40;41.08;;;12.30;99.90;;;;;;5097977;28;20235;-86
2023/05/15 00:56:29;;;;;;;71.13;40.22;;;12.30;99.90;;;;;;5080312;28;20216;-87
2023/05/15 00:58:58;;;;;;;71.22;40.45;;;12.30;99.90;;;;;;5064991;28;20170;-87
2023/05/15 01:01:24;;;;;;;71.25;41.40;;;12.30;99.90;;;;;;5098457;28;20260;-84
2023/05/15 01:03:50;;;;;;;72.20;40.35;;;12.30;99.90;;;;;;5098766;28;20189;-87
2023/05/15 01:06:16;;;;;;;71.70;40.55;;;12.30;99.90;;;;;;5079385;28;20225;-88
2023/05/15 01:08:46;;;;;;;70.00;42.50;;;12.30;99.90;;;;;;5069291;28;20341;-87
2023/05/15 01:11:13;;;;;;;67.13;40.10;;;12.30;99.90;;;;;;5108875;28;20276;-87
2023/05/15 01:13:39;;;;;;;74.88;41.95;;;12.20;99.90;;;;;;5095803;28;20178;-87
2023/05/15 01:16:06;;;;;;;73.30;43.22;;;12.20;99.90;;;;;;5080966;28;20656;-88
2023/05/15 01:18:33;;;;;;;76.15;42.70;;;12.20;99.90;;;;;;5062171;28;20182;-88
2023/05/15 01:21:14;;;;;;;72.82;42.58;;;12.20;99.90;;;;;;5083497;28;20186;-88
2023/05/15 01:24:05;;;;;;;76.82;43.60;;;12.20;99.90;;;;;;5067720;28;20178;-87
2023/05/15 01:26:49;;;;;;;77.53;43.00;;;12.10;99.90;;;;;;5080803;28;20263;-85
2023/05/15 01:29:18;;;;;;;79.15;42.85;;;12.10;99.90;;;;;;5096413;28;20282;-87
2023/05/15 01:31:49;;;;;;;76.65;42.03;;;12.10;99.90;;;;;;5080836;28;20175;-86
2023/05/15 01:34:19;;;;;;;72.13;42.78;;;12.10;99.90;;;;;;5063266;28;20170;-87
2023/05/15 01:36:50;;;;;;;74.60;42.03;;;12.10;99.90;;;;;;5091414;28;20190;-86
2023/05/15 01:39:22;;;;;;;79.95;42.33;;;12.10;99.90;;;;;;5099258;28;20578;-88
2023/05/15 01:41:55;;;;;;;72.80;40.60;;;12.00;99.90;;;;;;5084915;28;20185;-88
2023/05/15 01:44:31;;;;;;;78.72;44.15;;;12.00;99.90;;;;;;5084683;28;20258;-87
2023/05/15 01:47:09;;;;;;;75.65;44.58;;;11.90;99.90;;;;;;5093701;28;20192;-87
2023/05/15 01:49:36;;;;;;;80.85;44.83;;;11.90;99.90;;;;;;5078628;28;20177;-88
2023/05/15 01:52:13;;;;;;;83.60;44.85;;;11.90;99.90;;;;;;5083428;28;20205;-88
2023/05/15 01:54:45;;;;;;;88.80;46.88;;;11.90;99.90;;;;;;5085657;28;20182;-88
2023/05/15 01:57:13;;;;;;;82.03;43.28;;;11.90;99.90;;;;;;5068104;28;20257;-88
2023/05/15 01:59:40;;;;;;;80.72;45.35;;;11.80;99.90;;;;;;5065244;28;20182;-88
2023/05/15 02:02:06;;;;;;;79.63;43.45;;;11.80;99.90;;;;;;5067899;28;20189;-88
2023/05/15 02:04:33;;;;;;;82.90;44.92;;;11.80;99.90;;;;;;5085765;28;20178;-87
2023/05/15 02:07:01;;;;;;;84.22;44.97;;;11.80;99.90;;;;;;5098325;28;20192;-87
2023/05/15 02:09:27;;;;;;;82.30;45.90;;;11.70;99.90;;;;;;5065751;28;20193;-88
2023/05/15 02:11:54;;;;;;;76.93;44.30;;;11.70;99.90;;;;;;5072004;28;20190;-88
2023/05/15 02:14:21;;;;;;;79.85;43.85;;;11.70;99.90;;;;;;5075222;28;20194;-88
2023/05/15 02:16:47;;;;;;;80.78;43.63;;;11.70;99.90;;;;;;5080613;28;20178;-88
2023/05/15 02:19:13;;;;;;;74.55;42.85;;;11.70;99.90;;;;;;5059741;28;20640;-87
2023/05/15 02:21:39;;;;;;;69.20;41.38;;;11.70;99.90;;;;;;5060689;28;20189;-88
2023/05/15 02:24:05;;;;;;;75.82;41.83;;;11.60;99.90;;;;;;5077104;28;21032;-89
2023/05/15 02:26:58;;;;;;;75.13;43.42;;;11.60;99.90;;;;;;5081299;28;20214;-88
2023/05/15 02:29:51;;;;;;;76.90;41.13;;;11.60;99.90;;;;;;5083801;28;20221;-88
2023/05/15 02:32:23;;;;;;;81.53;38.00;;;11.50;99.90;;;;;;5050895;28;20206;-86
2023/05/15 02:35:00;;;;;;;71.38;38.97;;;11.60;99.90;;;;;;5076470;28;20193;-88
2023/05/15 02:37:32;;;;;;;67.85;38.05;;;11.50;99.90;;;;;;5089194;28;20178;-88
2023/05/15 02:40:06;;;;;;;70.75;39.67;;;11.40;99.90;;;;;;5079469;28;20181;-88
2023/05/15 02:42:33;;;;;;;72.32;39.75;;;11.30;99.90;;;;;;5088309;28;20837;-87
2023/05/15 02:45:00;;;;;;;76.45;40.53;;;11.30;99.90;;;;;;5092955;28;20205;-88
2023/05/15 02:47:27;;;;;;;76.03;41.65;;;11.30;99.90;;;;;;5109790;28;20181;-88
2023/05/15 02:49:53;;;;;;;73.25;40.53;;;11.30;99.90;;;;;;5094022;28;20173;-88
2023/05/15 02:52:21;;;;;;;71.90;39.28;;;11.30;99.90;;;;;;5085380;28;20250;-86
2023/05/15 02:54:47;;;;;;;76.93;40.05;;;11.30;99.90;;;;;;5102734;28;20194;-89
2023/05/15 02:57:13;;;;;;;79.30;38.83;;;11.30;99.90;;;;;;5085525;28;20211;-89
2023/05/15 02:59:38;;;;;;;76.32;42.42;;;11.20;99.90;;;;;;5090056;28;20179;-87
2023/05/15 03:02:05;;;;;;;82.68;43.20;;;11.10;99.90;;;;;;5068591;28;20268;-87
2023/05/15 03:04:33;;;;;;;86.85;41.97;;;11.10;99.90;;;;;;5113565;28;20548;-88
2023/05/15 03:06:59;;;;;;;84.60;42.45;;;11.10;99.90;;;;;;5083723;28;20222;-87
2023/05/15 03:09:27;;;;;;;85.25;43.50;;;11.10;99.90;;;;;;5064757;28;20197;-88
2023/05/15 03:11:53;;;;;;;87.70;44.28;;;11.10;99.90;;;;;;5065035;28;20249;-87
2023/05/15 03:14:19;;;;;;;79.05;42.03;;;11.10;99.90;;;;;;5083553;28;20254;-88
2023/05/15 03:16:45;;;;;;;80.38;42.45;;;11.10;99.90;;;;;;5099066;28;20704;-88
2023/05/15 03:19:11;;;;;;;73.22;40.33;;;11.20;99.90;;;;;;5065287;28;20189;-87
2023/05/15 03:21:37;;;;;;;77.90;41.50;;;11.20;99.90;;;;;;5082516;28;20193;-88
2023/05/15 03:24:03;;;;;;;71.03;37.63;;;11.20;99.90;;;;;;5050368;28;20213;-88
2023/05/15 03:26:28;;;;;;;71.40;38.47;;;11.20;99.90;;;;;;5081423;28;20210;-87
2023/05/15 03:28:54;;;;;;;74.40;39.00;;;11.20;99.90;;;;;;5083255;28;20268;-87
2023/05/15 03:31:20;;;;;;;75.60;39.15;;;11.20;99.90;;;;;;5081929;28;20185;-87
2023/05/15 03:33:48;;;;;;;77.65;38.88;;;11.20;99.90;;;;;;5049772;28;20238;-88
2023/05/15 03:36:14;;;;;;;66.40;36.83;;;11.10;99.90;;;;;;5099830;28;20212;-88
2023/05/15 03:38:42;;;;;;;55.40;32.10;;;11.10;99.90;;;;;;5101437;28;20219;-88
2023/05/15 03:41:09;;;;;;;55.00;30.88;;;11.10;99.90;;;;;;5065621;28;20289;-86
2023/05/15 03:43:35;;;;;;;51.88;29.48;;;11.00;99.90;;;;;;5082940;28;20182;-88
2023/05/15 03:46:01;;;;;;;49.58;28.83;;;11.00;99.90;;;;;;5085283;28;20282;-88
2023/05/15 03:48:27;;;;;;;49.00;28.90;;;11.00;99.90;;;;;;5085382;28;20177;-85
2023/05/15 03:50:53;;;;;;;49.60;29.67;;;11.00;99.90;;;;;;5064948;28;20236;-87
2023/05/15 03:53:18;;;;;;;50.90;29.33;;;11.00;99.90;;;;;;5081149;28;20564;-87
2023/05/15 03:55:44;;;;;;;50.08;29.73;;;11.00;99.90;;;;;;5062508;28;20652;-89
2023/05/15 03:58:10;;;;;;;48.35;28.88;;;11.00;99.90;;;;;;5067213;28;20180;-88
2023/05/15 04:00:36;;;;;;;51.67;30.02;;;11.00;99.90;;;;;;5097782;28;20190;-88
2023/05/15 04:03:02;;;;;;;50.08;29.98;;;11.00;99.90;;;;;;5083374;28;20655;-88
2023/05/15 04:05:28;;;;;;;48.15;29.33;;;11.00;99.90;;;;;;5075835;28;20656;-88
2023/05/15 04:07:53;;;;;;;51.53;31.23;;;11.00;99.90;;;;;;5060934;28;20190;-88
2023/05/15 04:10:19;;;;;;;49.38;30.35;;;11.00;99.90;;;;;;5063916;28;20208;-88
2023/05/15 04:12:45;;;;;;;46.30;31.20;;;11.00;99.90;;;;;;5076592;28;20213;-89
2023/05/15 04:15:22;;;;;;;50.88;30.75;;;11.00;99.90;;;;;;5078262;28;20564;-85
2023/05/15 04:17:50;;;;;;;46.70;30.42;;;11.10;99.90;;;;;;5080757;28;20651;-85
2023/05/15 04:20:19;;;;;;;43.30;31.02;;;11.10;99.90;;;;;;5061753;28;20187;-86
2023/05/15 04:22:45;;;;;;;44.50;31.83;;;11.10;99.90;;;;;;5095878;28;20177;-84
2023/05/15 04:25:13;;;;;;;45.13;32.17;;;11.10;99.90;;;;;;5080214;28;20262;-85
2023/05/15 04:27:40;;;;;;;46.80;32.42;;;11.10;99.90;;;;;;5079394;28;20178;-85
2023/05/15 04:30:08;;;;;;;41.67;31.33;;;11.20;99.90;;;;;;5061788;28;20219;-85
2023/05/15 04:32:37;;;;;;;40.90;30.20;;;11.20;99.90;;;;;;5071401;28;20232;-86
2023/05/15 04:35:05;;;;;;;37.28;27.08;;;11.20;99.90;;;;;;5077090;28;20189;-86
2023/05/15 04:37:30;;;;;;;35.65;24.27;;;11.20;99.90;;;;;;5072868;28;20186;-85
2023/05/15 04:39:56;;;;;;;30.17;23.42;;;11.20;99.90;;;;;;5097575;28;20219;-87
2023/05/15 04:42:22;;;;;;;34.55;24.80;;;11.20;99.90;;;;;;5079180;28;20613;-86
2023/05/15 04:44:48;;;;;;;31.95;25.42;;;11.20;99.90;;;;;;5047733;28;20185;-86
2023/05/15 04:47:14;;;;;;;32.60;23.42;;;11.30;99.90;;;;;;5101536;28;20198;-86
2023/05/15 04:49:41;;;;;;;32.63;23.83;;;11.30;99.90;;;;;;5085331;28;20267;-86
2023/05/15 04:52:07;;;;;;;32.10;24.70;;;11.30;99.90;;;;;;5104104;28;20178;-86
2023/05/15 04:54:33;;;;;;;32.88;24.98;;;11.30;99.90;;;;;;5091539;28;20235;-87
2023/05/15 04:56:59;;;;;;;33.45;25.35;;;11.40;99.90;;;;;;5068027;28;20219;-87
2023/05/15 04:59:27;;;;;;;33.42;24.77;;;11.40;99.90;;;;;;5099147;28;20186;-87
2023/05/15 05:01:56;;;;;;;35.63;25.48;;;11.40;99.90;;;;;;5062243;28;20173;-87
2023/05/15 05:04:22;;;;;;;35.53;24.98;;;11.40;99.90;;;;;;5072786;28;20207;-88
2023/05/15 05:06:48;;;;;;;35.88;25.17;;;11.50;99.90;;;;;;5076774;28;20217;-87
2023/05/15 05:09:14;;;;;;;34.08;24.17;;;11.50;99.90;;;;;;5066879;28;20178;-85
2023/05/15 05:11:43;;;;;;;34.67;26.20;;;11.50;99.90;;;;;;5090749;28;20702;-88
2023/05/15 05:14:10;;;;;;;34.40;25.23;;;11.60;99.90;;;;;;5080052;28;20196;-88
2023/05/15 05:16:36;;;;;;;36.22;24.95;;;11.60;99.90;;;;;;5060769;28;20187;-84
2023/05/15 05:19:02;;;;;;;33.40;24.88;;;11.60;99.90;;;;;;5099091;28;20215;-89
2023/05/15 05:21:28;;;;;;;36.92;24.92;;;11.60;99.90;;;;;;5087032;28;20250;-91
2023/05/15 05:23:55;;;;;;;33.88;25.52;;;11.70;99.90;;;;;;5083822;28;20185;-91
2023/05/15 05:26:21;;;;;;;33.00;24.42;;;11.70;99.90;;;;;;5062554;28;20210;-90
2023/05/15 05:28:47;;;;;;;37.10;25.42;;;11.80;99.90;;;;;;5093768;28;20229;-84
2023/05/15 05:31:13;;;;;;;36.90;26.10;;;11.80;99.90;;;;;;5085230;28;20162;-89
2023/05/15 05:33:39;;;;;;;34.38;24.70;;;11.80;99.90;;;;;;5064722;28;20182;-85
2023/05/15 05:36:05;;;;;;;35.53;26.35;;;11.90;99.90;;;;;;5073169;28;20182;-88
2023/05/15 05:38:31;;;;;;;32.88;25.58;;;11.90;99.90;;;;;;5090864;28;20276;-88
2023/05/15 05:40:57;;;;;;;33.13;25.50;;;11.90;99.90;;;;;;5102569;28;20230;-85
2023/05/15 05:43:25;;;;;;;32.67;25.48;;;11.90;99.90;;;;;;5088595;28;20190;-83
2023/05/15 05:45:51;;;;;;;35.70;25.38;;;11.90;99.90;;;;;;5057426;28;20232;-84
2023/05/15 05:48:16;;;;;;;32.60;24.30;;;12.00;99.90;;;;;;5074547;28;20263;-86
2023/05/15 05:50:42;;;;;;;34.35;26.42;;;12.00;99.90;;;;;;5081434;28;20639;-85
2023/05/15 05:53:08;;;;;;;34.17;25.77;;;12.10;99.90;;;;;;5084082;28;20695;-86
2023/05/15 05:55:34;;;;;;;34.75;25.70;;;12.10;99.90;;;;;;5100213;28;20189;-84
2023/05/15 05:58:00;;;;;;;33.28;24.50;;;12.10;99.90;;;;;;5068809;28;20292;-86
2023/05/15 06:00:26;;;;;;;30.50;24.17;;;12.20;99.90;;;;;;5083887;28;20190;-83
2023/05/15 06:02:58;;;;;;;30.40;23.08;;;12.20;99.90;;;;;;5100168;28;20693;-86
2023/05/15 06:05:28;;;;;;;33.00;23.27;;;12.30;99.90;;;;;;5078662;28;20233;-84
2023/05/15 06:07:54;;;;;;;28.10;21.98;;;12.30;99.90;;;;;;5072364;28;20174;-86
2023/05/15 06:10:20;;;;;;;30.35;24.10;;;12.30;99.90;;;;;;5074317;28;20590;-86
2023/05/15 06:12:47;;;;;;;30.02;22.50;;;12.40;99.90;;;;;;5100808;28;20174;-86
2023/05/15 06:15:15;;;;;;;30.23;23.15;;;12.50;99.90;;;;;;5098126;28;20232;-85
2023/05/15 06:17:41;;;;;;;29.60;21.70;;;12.50;99.90;;;;;;5088071;28;20644;-86
2023/05/15 06:20:07;;;;;;;30.40;20.92;;;12.60;99.90;;;;;;5074109;28;20557;-85
2023/05/15 06:22:37;;;;;;;29.00;20.05;;;12.70;99.90;;;;;;5102500;28;20667;-86
2023/05/15 06:25:06;;;;;;;27.10;19.52;;;12.80;99.90;;;;;;5063384;28;20217;-84
2023/05/15 06:27:33;;;;;;;31.98;18.20;;;12.90;99.90;;;;;;5097533;28;20190;-86
2023/05/15 06:29:59;;;;;;;26.98;18.60;;;13.00;99.90;;;;;;5061485;28;20241;-84
2023/05/15 06:32:25;;;;;;;26.33;18.80;;;13.00;99.90;;;;;;5085506;28;20194;-88
2023/05/15 06:34:51;;;;;;;22.90;18.13;;;13.10;99.90;;;;;;5080554;28;20182;-88
2023/05/15 06:37:16;;;;;;;24.50;17.20;;;13.20;99.90;;;;;;5063911;28;20190;-84
2023/05/15 06:39:42;;;;;;;23.35;16.23;;;13.30;99.90;;;;;;5088179;28;20651;-87
2023/05/15 06:42:08;;;;;;;21.08;16.23;;;13.40;99.90;;;;;;5085612;28;20189;-86
2023/05/15 06:44:35;;;;;;;20.02;15.95;;;13.50;99.90;;;;;;5084372;28;20544;-85
2023/05/15 06:47:01;;;;;;;22.00;15.70;;;13.60;99.90;;;;;;5103711;28;20210;-85
2023/05/15 06:49:27;;;;;;;20.92;15.23;;;13.60;99.90;;;;;;5089216;28;20695;-84
2023/05/15 06:51:56;;;;;;;24.00;15.07;;;13.70;99.90;;;;;;5057838;28;20187;-85
2023/05/15 06:54:22;;;;;;;20.00;14.98;;;13.70;99.90;;;;;;5074853;28;20250;-84
2023/05/15 06:56:48;;;;;;;18.60;14.88;;;13.70;99.90;;;;;;5085436;28;20178;-82
2023/05/15 06:59:14;;;;;;;19.27;15.35;;;13.90;99.90;;;;;;5084287;28;20185;-84
2023/05/15 07:01:40;;;;;;;21.65;16.15;;;14.00;99.90;;;;;;5081869;28;20653;-88
2023/05/15 07:04:06;;;;;;;19.40;15.68;;;14.10;99.90;;;;;;5085125;28;20189;-87
2023/05/15 07:06:32;;;;;;;20.70;16.27;;;14.30;99.90;;;;;;5083577;28;20218;-84
2023/05/15 07:08:58;;;;;;;20.40;15.15;;;14.30;99.90;;;;;;5080122;28;20214;-81
2023/05/15 07:11:25;;;;;;;20.02;14.57;;;14.40;99.90;;;;;;5081373;28;20190;-82
2023/05/15 07:13:51;;;;;;;18.20;14.43;;;14.50;99.90;;;;;;5059174;28;20179;-81
2023/05/15 07:16:17;;;;;;;15.75;13.50;;;14.50;99.90;;;;;;5069965;28;20183;-82
2023/05/15 07:18:43;;;;;;;17.73;14.18;;;14.60;99.90;;;;;;5057084;28;20181;-85
2023/05/15 07:21:09;;;;;;;17.35;13.88;;;14.70;99.90;;;;;;5077178;28;20181;-86
2023/05/15 07:23:35;;;;;;;18.05;13.40;;;14.90;99.90;;;;;;5094100;28;20544;-82
2023/05/15 07:26:01;;;;;;;17.83;13.68;;;15.00;99.90;;;;;;5093906;28;20274;-82
2023/05/15 07:28:27;;;;;;;19.73;13.75;;;15.10;99.90;;;;;;5042257;28;20272;-85
2023/05/15 07:30:53;;;;;;;21.58;13.00;;;15.30;99.90;;;;;;5100795;28;20226;-86
2023/05/15 07:33:18;;;;;;;17.95;11.57;;;15.40;99.90;;;;;;5086956;28;20724;-89
2023/05/15 07:35:44;;;;;;;12.82;11.13;;;15.60;99.90;;;;;;5080705;28;20227;-83
2023/05/15 07:38:10;;;;;;;15.13;11.05;;;15.70;99.90;;;;;;5083721;28;20173;-82
2023/05/15 07:40:36;;;;;;;13.05;11.15;;;15.80;99.90;;;;;;5099159;28;20174;-83
2023/05/15 07:43:02;;;;;;;17.38;12.07;;;15.90;99.90;;;;;;5096766;28;20643;-84
2023/05/15 07:45:28;;;;;;;14.18;11.68;;;15.90;99.90;;;;;;5080432;28;20217;-83
2023/05/15 07:47:54;;;;;;;17.17;12.00;;;16.00;99.90;;;;;;5045501;28;20177;-83
2023/05/15 07:50:20;;;;;;;15.77;11.95;;;16.00;99.90;;;;;;5076677;28;20636;-82
2023/05/15 07:52:46;;;;;;;15.40;12.80;;;16.10;99.90;;;;;;5078745;28;20273;-83
2023/05/15 07:55:12;;;;;;;16.90;11.57;;;16.10;99.90;;;;;;5098562;28;20603;-93
2023/05/15 07:57:41;;;;;;;15.77;11.40;;;16.10;99.90;;;;;;5081495;28;20174;-83
2023/05/15 08:00:10;;;;;;;13.57;11.45;;;16.20;99.90;;;;;;5080424;28;20226;-83
2023/05/15 08:02:40;;;;;;;14.88;10.25;;;16.30;99.90;;;;;;5028964;28;20182;-82
2023/05/15 08:05:06;;;;;;;13.98;10.50;;;16.40;99.90;;;;;;5027917;28;20322;-83
2023/05/15 08:07:32;;;;;;;14.75;11.43;;;16.50;99.90;;;;;;5068640;28;20204;-83
2023/05/15 08:09:58;;;;;;;14.35;10.63;;;16.60;99.90;;;;;;5065570;28;20655;-83
2023/05/15 08:12:25;;;;;;;14.05;10.43;;;16.70;99.90;;;;;;5083327;28;20182;-86
2023/05/15 08:14:54;;;;;;;13.80;11.35;;;16.80;99.90;;;;;;5100574;28;20188;-84
2023/05/15 08:17:21;;;;;;;12.77;11.10;;;16.90;99.90;;;;;;5092579;28;20181;-83
2023/05/15 08:19:47;;;;;;;14.57;10.98;;;16.80;99.90;;;;;;5079767;28;20178;-84
2023/05/15 08:22:13;;;;;;;14.40;11.07;;;17.00;99.90;;;;;;5080249;28;20212;-84
2023/05/15 08:24:39;;;;;;;13.95;11.20;;;17.10;99.90;;;;;;5063930;28;20218;-84
2023/05/15 08:27:10;;;;;;;14.65;12.07;;;17.10;99.90;;;;;;5092134;28;20217;-91
2023/05/15 08:29:40;;;;;;;12.40;10.38;;;17.10;99.90;;;;;;5079787;28;20233;-82
2023/05/15 08:32:07;;;;;;;17.23;11.30;;;17.10;99.90;;;;;;5059954;28;20269;-83
2023/05/15 08:34:33;;;;;;;14.05;10.35;;;17.20;99.90;;;;;;5058720;28;20175;-83
2023/05/15 08:36:59;;;;;;;13.65;10.30;;;17.40;99.90;;;;;;5057790;28;20597;-83
2023/05/15 08:39:25;;;;;;;14.65;10.20;;;17.50;99.90;;;;;;5063677;28;20202;-83
2023/05/15 08:41:59;;;;;;;12.70;10.23;;;17.70;99.90;;;;;;5079692;28;20194;-83
2023/05/15 08:44:25;;;;;;;14.00;9.45;;;17.80;99.90;;;;;;5070525;28;20279;-84
2023/05/15 08:46:52;;;;;;;12.57;9.98;;;18.00;99.90;;;;;;5050864;28;20227;-84
2023/05/15 08:49:29;;;;;;;12.82;9.05;;;18.00;99.90;;;;;;5060154;28;20195;-84
2023/05/15 08:51:55;;;;;;;11.20;8.90;;;18.00;99.90;;;;;;5060500;28;20245;-83
2023/05/15 08:54:21;;;;;;;14.95;8.88;;;18.00;99.90;;;;;;5060663;28;20180;-84
2023/05/15 08:56:47;;;;;;;13.90;9.50;;;18.00;99.90;;;;;;5058743;28;20208;-83
2023/05/15 08:59:13;;;;;;;12.95;8.88;;;18.00;99.90;;;;;;5042329;28;20541;-83
2023/05/15 09:01:39;;;;;;;13.27;9.50;;;18.00;99.90;;;;;;5074716;28;20186;-84
2023/05/15 09:04:05;;;;;;;13.77;8.63;;;17.90;99.90;;;;;;5045999;28;20182;-84
2023/05/15 09:06:33;;;;;;;14.75;10.23;;;17.90;99.90;;;;;;5075246;28;20225;-84
2023/05/15 09:08:59;;;;;;;12.27;8.07;;;17.90;99.90;;;;;;5074790;28;20182;-84
2023/05/15 09:11:27;;;;;;;13.50;8.38;;;18.00;99.90;;;;;;5075030;28;20182;-84
2023/05/15 09:13:59;;;;;;;11.55;8.60;;;18.10;99.90;;;;;;5076379;28;20591;-83
2023/05/15 09:16:26;;;;;;;12.20;8.75;;;18.20;99.90;;;;;;5075191;28;20190;-84
2023/05/15 09:18:52;;;;;;;11.77;9.10;;;18.40;99.90;;;;;;5068103;28;20183;-84
2023/05/15 09:21:26;;;;;;;10.45;7.63;;;18.50;99.90;;;;;;5078077;28;20194;-83
2023/05/15 09:23:54;;;;;;;10.10;8.32;;;18.60;99.90;;;;;;5074165;28;20190;-83
2023/05/15 09:26:20;;;;;;;13.02;8.20;;;18.70;99.90;;;;;;5074310;28;20217;-83
2023/05/15 09:28:47;;;;;;;14.13;9.45;;;18.80;99.90;;;;;;5071007;28;20214;-83
2023/05/15 09:31:13;;;;;;;14.93;8.85;;;19.00;99.90;;;;;;5055817;28;20277;-83
2023/05/15 09:33:41;;;;;;;10.68;8.85;;;19.10;99.90;;;;;;5052449;28;20190;-83
2023/05/15 09:36:20;;;;;;;10.07;8.13;;;19.20;99.90;;;;;;5075770;28;20201;-83
2023/05/15 09:38:48;;;;;;;11.23;7.07;;;19.20;99.90;;;;;;5069581;28;20213;-83
2023/05/15 09:41:13;;;;;;;8.82;7.15;;;19.20;99.90;;;;;;5074971;28;20240;-83
2023/05/15 09:43:40;;;;;;;13.52;7.65;;;19.20;99.90;;;;;;5095836;28;20178;-84
2023/05/15 09:46:11;;;;;;;9.45;7.35;;;19.20;99.90;;;;;;5097054;28;20206;-86
2023/05/15 09:48:37;;;;;;;11.63;7.50;;;19.30;99.90;;;;;;5093092;28;20178;-83
2023/05/15 09:51:13;;;;;;;18.63;7.30;;;19.30;99.90;;;;;;5094659;28;20590;-84
2023/05/15 09:53:38;;;;;;;10.50;6.63;;;19.40;99.90;;;;;;5096070;28;20185;-84
2023/05/15 09:56:04;;;;;;;8.75;6.60;;;19.50;99.90;;;;;;5079785;28;20185;-84
2023/05/15 09:58:31;;;;;;;8.77;7.40;;;19.70;99.90;;;;;;5058254;28;20544;-84
2023/05/15 10:00:59;;;;;;;10.32;7.70;;;19.80;99.90;;;;;;5090515;28;20178;-84
2023/05/15 10:03:25;;;;;;;8.65;6.70;;;19.80;99.90;;;;;;5093256;28;20181;-84
2023/05/15 10:05:59;;;;;;;11.70;6.53;;;19.80;99.90;;;;;;5094222;28;20221;-84
2023/05/15 10:08:29;;;;;;;10.50;7.00;;;19.90;99.90;;;;;;5090876;28;20410;-84
2023/05/15 10:10:59;;;;;;;11.73;7.85;;;19.90;99.90;;;;;;5094971;28;20284;-84
2023/05/15 10:13:26;;;;;;;12.60;7.38;;;20.00;99.90;;;;;;5091212;28;20636;-83
2023/05/15 10:15:53;;;;;;;7.97;5.85;;;20.00;99.90;;;;;;5074442;28;20243;-83
2023/05/15 10:18:26;;;;;;;9.65;6.18;;;20.00;99.90;;;;;;5075792;28;20269;-83
2023/05/15 10:20:53;;;;;;;8.80;6.50;;;20.00;99.90;;;;;;5074908;28;20174;-83
2023/05/15 10:23:21;;;;;;;6.97;5.85;;;20.10;99.90;;;;;;5098875;28;20174;-84
2023/05/15 10:25:52;;;;;;;9.30;6.75;;;20.20;99.90;;;;;;5093859;28;20209;-83
2023/05/15 10:28:19;;;;;;;9.05;6.32;;;20.20;99.90;;;;;;5067391;28;20186;-85
2023/05/15 10:30:45;;;;;;;8.43;6.45;;;20.30;99.60;;;;;;5060466;28;20226;-84
2023/05/15 10:33:12;;;;;;;13.57;6.78;;;20.40;99.20;;;;;;5077093;28;20189;-83
2023/05/15 10:35:42;;;;;;;9.10;6.40;;;20.40;99.00;;;;;;5078271;28;20201;-82
2023/05/15 10:38:12;;;;;;;10.57;7.00;;;20.50;98.90;;;;;;5075467;28;20217;-83
2023/05/15 10:40:44;;;;;;;10.00;6.43;;;20.70;98.60;;;;;;5093233;28;20187;-82
2023/05/15 10:43:12;;;;;;;11.75;7.82;;;20.50;98.20;;;;;;5093393;28;20190;-83
2023/05/15 10:45:38;;;;;;;10.23;7.50;;;20.40;98.20;;;;;;5079252;28;20767;-83
2023/05/15 10:48:06;;;;;;;11.63;6.63;;;20.30;98.40;;;;;;5094498;28;20662;-82
2023/05/15 10:50:37;;;;;;;10.27;6.78;;;20.40;98.40;;;;;;5092239;28;20183;-82
2023/05/15 10:53:03;;;;;;;11.20;7.43;;;20.40;98.30;;;;;;5094975;28;20186;-81
2023/05/15 10:55:30;;;;;;;11.60;7.50;;;20.50;98.30;;;;;;5078794;28;20269;-82
2023/05/15 10:57:56;;;;;;;10.13;7.15;;;20.50;98.30;;;;;;5075200;28;20178;-82
2023/05/15 11:00:21;;;;;;;11.77;7.25;;;20.40;98.40;;;;;;5076358;28;20208;-82
2023/05/15 11:02:48;;;;;;;11.98;6.97;;;20.40;98.40;;;;;;5092612;28;20224;-83
2023/05/15 11:05:14;;;;;;;10.23;7.15;;;20.30;98.40;;;;;;5070533;28;20206;-82
2023/05/15 11:07:40;;;;;;;11.43;7.97;;;20.40;98.40;;;;;;5056387;28;20282;-82
2023/05/15 11:10:32;;;;;;;9.27;7.10;;;20.30;98.30;;;;;;5076050;28;20206;-82
2023/05/15 11:13:00;;;;;;;12.48;7.60;;;20.20;98.20;;;;;;5089385;28;20570;-82
2023/05/15 11:15:26;;;;;;;11.82;7.35;;;20.10;98.40;;;;;;5076728;28;20186;-82
2023/05/15 11:18:05;;;;;;;10.90;6.68;;;20.10;98.20;;;;;;5053816;28;20777;-83
2023/05/15 11:20:54;;;;;;;11.23;7.20;;;20.10;98.10;;;;;;5056319;28;20545;-82
2023/05/15 11:23:24;;;;;;;7.90;6.72;;;20.10;98.00;;;;;;5056493;28;20190;-82
2023/05/15 11:26:00;;;;;;;10.25;6.82;;;20.20;97.80;;;;;;5090891;28;20268;-82
2023/05/15 11:28:27;;;;;;;11.32;7.22;;;20.20;97.90;;;;;;5078320;28;20185;-82
2023/05/15 11:30:59;;;;;;;9.82;7.50;;;20.30;97.70;;;;;;5097017;28;20218;-82
2023/05/15 11:33:30;;;;;;;11.93;8.07;;;20.40;97.50;;;;;;5076333;28;21172;-83
2023/05/15 11:35:57;;;;;;;11.68;7.93;;;20.30;97.50;;;;;;5072731;28;20212;-82
2023/05/15 11:38:25;;;;;;;8.68;7.32;;;20.20;97.50;;;;;;5089919;28;20178;-83
2023/05/15 11:41:02;;;;;;;10.85;7.32;;;20.20;97.60;;;;;;5086535;28;20235;-83
2023/05/15 11:43:32;;;;;;;10.70;8.60;;;20.20;97.60;;;;;;5087495;28;20189;-83
2023/05/15 11:46:11;;;;;;;15.10;9.20;;;20.20;97.60;;;;;;5091561;28;20221;-82
2023/05/15 11:48:47;;;;;;;14.40;8.07;;;20.00;97.60;;;;;;5077536;28;20690;-83
2023/05/15 11:51:20;;;;;;;11.32;8.20;;;19.90;98.10;;;;;;5094036;28;20563;-82
2023/05/15 11:53:48;;;;;;;11.05;7.95;;;19.90;98.10;;;;;;5094472;28;20231;-81
2023/05/15 11:56:26;;;;;;;14.95;7.25;;;19.90;98.20;;;;;;5090693;28;20455;-84
2023/05/15 11:58:55;;;;;;;12.88;8.02;;;20.00;98.20;;;;;;5072580;28;20174;-84
2023/05/15 12:01:22;;;;;;;11.85;7.22;;;20.00;98.00;;;;;;5043194;28;20175;-83
2023/05/15 12:03:48;;;;;;;9.18;8.02;;;20.10;97.70;;;;;;5070170;28;20284;-82
2023/05/15 12:06:15;;;;;;;10.50;8.68;;;20.10;97.50;;;;;;5090480;28;20213;-82
2023/05/15 12:08:41;;;;;;;11.48;8.50;;;20.10;97.30;;;;;;5091669;28;20174;-82
2023/05/15 12:11:07;;;;;;;13.52;9.68;;;20.00;97.30;;;;;;5080360;28;20572;-83
2023/05/15 12:13:34;;;;;;;12.80;9.45;;;19.80;97.40;;;;;;5081704;28;20240;-83
2023/05/15 12:16:03;;;;;;;11.90;9.10;;;19.70;97.70;;;;;;5076012;28;20273;-82
2023/05/15 12:18:32;;;;;;;16.38;9.00;;;19.60;97.80;;;;;;5095151;28;20577;-83
2023/05/15 12:20:59;;;;;;;11.55;8.82;;;19.60;97.80;;;;;;5077972;28;20568;-82
2023/05/15 12:23:27;;;;;;;13.18;10.02;;;19.60;97.80;;;;;;5094713;28;20238;-82
2023/05/15 12:25:58;;;;;;;13.20;9.13;;;19.60;97.60;;;;;;5094579;28;20205;-82
2023/05/15 12:28:25;;;;;;;13.15;10.48;;;19.60;97.50;;;;;;5089899;28;20239;-81
2023/05/15 12:30:52;;;;;;;11.60;9.32;;;19.60;97.60;;;;;;5071324;28;20217;-82
2023/05/15 12:33:18;;;;;;;10.57;8.63;;;19.50;97.70;;;;;;5054953;28;20182;-81